sensor_id;sensor_type;location;lat;lon;timestamp;pressure;altitude;pressure_sealevel;temperature;humidity
17025;BME280;8629;42.496;25.620;2024-02-28T00:02:02;96893.75;;;6.37;73.51
17025;BME280;8629;42.496;25.620;2024-02-28T00:04:29;96895.13;;;6.45;73.03
17025;BME280;8629;42.496;25.620;2024-02-28T00:06:56;96840.88;;;6.37;71.60
17025;BME280;8629;42.496;25.620;2024-02-28T00:09:23;96899.59;;;6.71;72.38
17025;BME280;8629;42.496;25.620;2024-02-28T00:11:50;96849.97;;;6.19;72.83
17025;BME280;8629;42.496;25.620;2024-02-28T00:14:18;96887.78;;;6.47;73.04
17025;BME280;8629;42.496;25.620;2024-02-28T00:16:46;96896.09;;;6.06;73.97
17025;BME280;8629;42.496;25.620;2024-02-28T00:19:13;96903.53;;;5.87;74.55
17025;BME280;8629;42.496;25.620;2024-02-28T00:21:40;96903.31;;;5.89;74.68
17025;BME280;8629;42.496;25.620;2024-02-28T00:24:08;96911.91;;;6.01;73.23
17025;BME280;8629;42.496;25.620;2024-02-28T00:26:35;96881.00;;;6.02;73.54
17025;BME280;8629;42.496;25.620;2024-02-28T00:29:02;96895.41;;;6.16;73.08
17025;BME280;8629;42.496;25.620;2024-02-28T00:31:30;96888.19;;;6.06;73.15
17025;BME280;8629;42.496;25.620;2024-02-28T00:33:57;96892.19;;;5.87;73.48
17025;BME280;8629;42.496;25.620;2024-02-28T00:36:24;96900.94;;;6.15;73.57
17025;BME280;8629;42.496;25.620;2024-02-28T00:38:50;96882.91;;;6.06;72.99
17025;BME280;8629;42.496;25.620;2024-02-28T00:41:17;96792.22;;;5.25;73.19
17025;BME280;8629;42.496;25.620;2024-02-28T00:43:44;96900.66;;;5.89;74.43
17025;BME280;8629;42.496;25.620;2024-02-28T00:46:11;96831.72;;;5.42;74.77
17025;BME280;8629;42.496;25.620;2024-02-28T00:48:39;96904.28;;;6.05;75.45
17025;BME280;8629;42.496;25.620;2024-02-28T00:51:06;96906.53;;;6.18;73.68
17025;BME280;8629;42.496;25.620;2024-02-28T00:53:33;96889.28;;;6.10;73.62
17025;BME280;8629;42.496;25.620;2024-02-28T00:56:00;96879.13;;;5.97;73.04
17025;BME280;8629;42.496;25.620;2024-02-28T00:58:27;96886.00;;;5.98;74.01
17025;BME280;8629;42.496;25.620;2024-02-28T01:00:55;96900.59;;;6.06;74.13
17025;BME280;8629;42.496;25.620;2024-02-28T01:03:22;96914.78;;;6.00;74.11
17025;BME280;8629;42.496;25.620;2024-02-28T01:05:51;96908.97;;;5.98;73.60
17025;BME280;8629;42.496;25.620;2024-02-28T01:08:17;96878.41;;;5.58;75.01
17025;BME280;8629;42.496;25.620;2024-02-28T01:10:44;96897.31;;;5.94;74.17
17025;BME280;8629;42.496;25.620;2024-02-28T01:13:11;96893.41;;;5.79;74.61
17025;BME280;8629;42.496;25.620;2024-02-28T01:15:39;96897.28;;;5.72;75.63
17025;BME280;8629;42.496;25.620;2024-02-28T01:18:06;96887.66;;;5.60;75.88
17025;BME280;8629;42.496;25.620;2024-02-28T01:20:33;96909.00;;;6.03;74.91
17025;BME280;8629;42.496;25.620;2024-02-28T01:23:01;96900.91;;;5.87;74.17
17025;BME280;8629;42.496;25.620;2024-02-28T01:25:28;96887.16;;;5.85;73.71
17025;BME280;8629;42.496;25.620;2024-02-28T01:27:56;96893.50;;;5.62;75.34
17025;BME280;8629;42.496;25.620;2024-02-28T01:30:23;96878.94;;;5.60;74.58
17025;BME280;8629;42.496;25.620;2024-02-28T01:32:50;96902.69;;;5.82;74.27
17025;BME280;8629;42.496;25.620;2024-02-28T01:35:17;96904.28;;;5.83;74.10
17025;BME280;8629;42.496;25.620;2024-02-28T01:37:43;96885.81;;;5.61;74.34
17025;BME280;8629;42.496;25.620;2024-02-28T01:40:12;96885.31;;;5.64;74.26
17025;BME280;8629;42.496;25.620;2024-02-28T01:42:39;96897.25;;;5.67;74.36
17025;BME280;8629;42.496;25.620;2024-02-28T01:45:07;96912.59;;;5.48;75.28
17025;BME280;8629;42.496;25.620;2024-02-28T01:47:35;96893.81;;;5.44;75.08
17025;BME280;8629;42.496;25.620;2024-02-28T01:50:03;96880.56;;;5.39;73.57
17025;BME280;8629;42.496;25.620;2024-02-28T01:52:31;96898.97;;;5.56;73.49
17025;BME280;8629;42.496;25.620;2024-02-28T01:54:59;96900.41;;;5.69;73.28
17025;BME280;8629;42.496;25.620;2024-02-28T01:57:27;96890.78;;;5.57;73.37
17025;BME280;8629;42.496;25.620;2024-02-28T01:59:55;96893.06;;;5.49;73.67
17025;BME280;8629;42.496;25.620;2024-02-28T02:02:23;96869.78;;;5.46;74.09
17025;BME280;8629;42.496;25.620;2024-02-28T02:04:49;96899.88;;;5.45;74.31
17025;BME280;8629;42.496;25.620;2024-02-28T02:07:18;96896.31;;;5.34;75.15
17025;BME280;8629;42.496;25.620;2024-02-28T02:09:45;96912.22;;;5.39;75.09
17025;BME280;8629;42.496;25.620;2024-02-28T02:12:12;96904.66;;;5.26;74.64
17025;BME280;8629;42.496;25.620;2024-02-28T02:14:40;96913.44;;;5.31;74.09
17025;BME280;8629;42.496;25.620;2024-02-28T02:17:07;96923.75;;;5.33;73.66
17025;BME280;8629;42.496;25.620;2024-02-28T02:19:35;96901.09;;;5.37;73.58
17025;BME280;8629;42.496;25.620;2024-02-28T02:22:13;96888.69;;;5.15;72.92
17025;BME280;8629;42.496;25.620;2024-02-28T02:24:42;96911.00;;;5.08;75.17
17025;BME280;8629;42.496;25.620;2024-02-28T02:27:09;96897.34;;;4.94;76.03
17025;BME280;8629;42.496;25.620;2024-02-28T02:29:35;96905.25;;;4.94;75.54
17025;BME280;8629;42.496;25.620;2024-02-28T02:32:02;96936.75;;;5.01;75.35
17025;BME280;8629;42.496;25.620;2024-02-28T02:34:29;96922.41;;;5.13;74.94
17025;BME280;8629;42.496;25.620;2024-02-28T02:36:56;96913.81;;;5.40;73.57
17025;BME280;8629;42.496;25.620;2024-02-28T02:39:23;96901.66;;;5.39;72.87
17025;BME280;8629;42.496;25.620;2024-02-28T02:41:51;96911.25;;;5.06;73.56
17025;BME280;8629;42.496;25.620;2024-02-28T02:44:18;96921.53;;;5.25;74.07
17025;BME280;8629;42.496;25.620;2024-02-28T02:46:45;96901.19;;;4.86;74.30
17025;BME280;8629;42.496;25.620;2024-02-28T02:49:12;96926.59;;;5.09;74.48
17025;BME280;8629;42.496;25.620;2024-02-28T02:51:39;96923.53;;;5.34;74.04
17025;BME280;8629;42.496;25.620;2024-02-28T02:54:07;96931.75;;;5.21;74.56
17025;BME280;8629;42.496;25.620;2024-02-28T02:56:35;96934.19;;;5.23;75.58
17025;BME280;8629;42.496;25.620;2024-02-28T02:59:03;96924.78;;;4.93;76.50
17025;BME280;8629;42.496;25.620;2024-02-28T03:01:30;96891.47;;;4.70;77.38
17025;BME280;8629;42.496;25.620;2024-02-28T03:03:56;96911.19;;;4.84;76.11
17025;BME280;8629;42.496;25.620;2024-02-28T03:06:23;96881.31;;;4.62;75.21
17025;BME280;8629;42.496;25.620;2024-02-28T03:08:50;96940.16;;;5.35;73.83
17025;BME280;8629;42.496;25.620;2024-02-28T03:11:16;96864.56;;;4.51;74.10
17025;BME280;8629;42.496;25.620;2024-02-28T03:13:43;96930.00;;;4.88;75.11
17025;BME280;8629;42.496;25.620;2024-02-28T03:16:11;96934.69;;;4.86;74.86
17025;BME280;8629;42.496;25.620;2024-02-28T03:18:38;96960.66;;;4.94;74.73
17025;BME280;8629;42.496;25.620;2024-02-28T03:21:04;96946.94;;;4.92;74.40
17025;BME280;8629;42.496;25.620;2024-02-28T03:23:32;96945.53;;;5.06;74.18
17025;BME280;8629;42.496;25.620;2024-02-28T03:26:01;96954.84;;;4.92;73.52
17025;BME280;8629;42.496;25.620;2024-02-28T03:28:28;96933.00;;;4.97;74.51
17025;BME280;8629;42.496;25.620;2024-02-28T03:30:55;96945.53;;;5.06;74.30
17025;BME280;8629;42.496;25.620;2024-02-28T03:33:23;96922.28;;;4.86;75.18
17025;BME280;8629;42.496;25.620;2024-02-28T03:35:51;96956.84;;;4.85;75.32
17025;BME280;8629;42.496;25.620;2024-02-28T03:38:18;96949.72;;;4.85;75.33
17025;BME280;8629;42.496;25.620;2024-02-28T03:40:44;96947.00;;;4.80;75.28
17025;BME280;8629;42.496;25.620;2024-02-28T03:43:11;96953.22;;;4.91;74.97
17025;BME280;8629;42.496;25.620;2024-02-28T03:45:39;96951.09;;;4.88;74.76
17025;BME280;8629;42.496;25.620;2024-02-28T03:48:14;96951.47;;;4.80;74.88
17025;BME280;8629;42.496;25.620;2024-02-28T03:50:54;96970.25;;;4.66;76.19
17025;BME280;8629;42.496;25.620;2024-02-28T03:53:30;96975.84;;;4.53;76.52
17025;BME280;8629;42.496;25.620;2024-02-28T03:55:57;96978.22;;;4.55;76.59
17025;BME280;8629;42.496;25.620;2024-02-28T03:58:24;96973.56;;;4.45;77.02
17025;BME280;8629;42.496;25.620;2024-02-28T04:00:51;96982.28;;;4.46;76.80
17025;BME280;8629;42.496;25.620;2024-02-28T04:03:18;96952.41;;;4.57;76.29
17025;BME280;8629;42.496;25.620;2024-02-28T04:05:45;96967.28;;;4.80;75.75
17025;BME280;8629;42.496;25.620;2024-02-28T04:08:13;96964.16;;;4.49;76.34
17025;BME280;8629;42.496;25.620;2024-02-28T04:10:40;96977.47;;;4.43;75.85
17025;BME280;8629;42.496;25.620;2024-02-28T04:13:07;96946.56;;;4.38;76.02
17025;BME280;8629;42.496;25.620;2024-02-28T04:15:34;96971.84;;;4.84;75.20
17025;BME280;8629;42.496;25.620;2024-02-28T04:18:03;96961.44;;;4.95;75.79
17025;BME280;8629;42.496;25.620;2024-02-28T04:20:29;96952.56;;;4.84;75.06
17025;BME280;8629;42.496;25.620;2024-02-28T04:22:56;96968.88;;;4.64;76.82
17025;BME280;8629;42.496;25.620;2024-02-28T04:25:24;96960.56;;;4.55;77.85
17025;BME280;8629;42.496;25.620;2024-02-28T04:27:51;96951.13;;;4.59;76.36
17025;BME280;8629;42.496;25.620;2024-02-28T04:30:18;96970.88;;;4.90;75.97
17025;BME280;8629;42.496;25.620;2024-02-28T04:32:45;96961.06;;;4.69;76.28
17025;BME280;8629;42.496;25.620;2024-02-28T04:35:12;96943.94;;;4.55;77.16
17025;BME280;8629;42.496;25.620;2024-02-28T04:37:41;96953.44;;;4.56;76.55
17025;BME280;8629;42.496;25.620;2024-02-28T04:40:08;96964.56;;;4.58;76.65
17025;BME280;8629;42.496;25.620;2024-02-28T04:42:37;96971.25;;;4.49;75.85
17025;BME280;8629;42.496;25.620;2024-02-28T04:45:07;96960.00;;;4.08;76.59
17025;BME280;8629;42.496;25.620;2024-02-28T04:47:34;96909.66;;;3.92;76.99
17025;BME280;8629;42.496;25.620;2024-02-28T04:50:05;96963.66;;;4.35;76.27
17025;BME280;8629;42.496;25.620;2024-02-28T04:52:32;96955.47;;;4.20;75.62
17025;BME280;8629;42.496;25.620;2024-02-28T04:54:59;96968.59;;;4.03;76.24
17025;BME280;8629;42.496;25.620;2024-02-28T04:57:26;96965.00;;;4.09;77.11
17025;BME280;8629;42.496;25.620;2024-02-28T04:59:54;96950.06;;;4.27;77.00
17025;BME280;8629;42.496;25.620;2024-02-28T05:02:21;96964.47;;;4.53;75.32
17025;BME280;8629;42.496;25.620;2024-02-28T05:04:49;96948.13;;;4.22;75.78
17025;BME280;8629;42.496;25.620;2024-02-28T05:07:19;96977.69;;;4.41;75.44
17025;BME280;8629;42.496;25.620;2024-02-28T05:09:55;96967.59;;;4.50;75.97
17025;BME280;8629;42.496;25.620;2024-02-28T05:12:31;96973.38;;;4.35;76.20
17025;BME280;8629;42.496;25.620;2024-02-28T05:14:59;96962.06;;;4.51;76.41
17025;BME280;8629;42.496;25.620;2024-02-28T05:17:26;96970.22;;;4.50;76.35
17025;BME280;8629;42.496;25.620;2024-02-28T05:20:02;96967.69;;;4.72;77.18
17025;BME280;8629;42.496;25.620;2024-02-28T05:22:29;96913.31;;;4.20;76.77
17025;BME280;8629;42.496;25.620;2024-02-28T05:24:56;96932.94;;;4.58;76.97
17025;BME280;8629;42.496;25.620;2024-02-28T05:27:25;96966.91;;;5.05;76.66
17025;BME280;8629;42.496;25.620;2024-02-28T05:29:53;96968.81;;;5.09;76.10
17025;BME280;8629;42.496;25.620;2024-02-28T05:32:23;96967.22;;;5.08;75.59
17025;BME280;8629;42.496;25.620;2024-02-28T05:34:50;96944.84;;;4.77;76.40
17025;BME280;8629;42.496;25.620;2024-02-28T05:37:17;96981.22;;;4.92;76.21
17025;BME280;8629;42.496;25.620;2024-02-28T05:39:44;96956.88;;;4.56;77.03
17025;BME280;8629;42.496;25.620;2024-02-28T05:42:11;96980.63;;;4.90;77.33
17025;BME280;8629;42.496;25.620;2024-02-28T05:44:42;96982.88;;;4.81;77.60
17025;BME280;8629;42.496;25.620;2024-02-28T05:47:09;96959.44;;;4.68;77.82
17025;BME280;8629;42.496;25.620;2024-02-28T05:49:37;96990.47;;;4.95;77.91
17025;BME280;8629;42.496;25.620;2024-02-28T05:52:05;96973.38;;;4.80;77.69
17025;BME280;8629;42.496;25.620;2024-02-28T05:54:32;96948.22;;;4.73;78.08
17025;BME280;8629;42.496;25.620;2024-02-28T05:56:59;96980.81;;;5.00;77.52
17025;BME280;8629;42.496;25.620;2024-02-28T05:59:26;96991.97;;;5.24;76.46
17025;BME280;8629;42.496;25.620;2024-02-28T06:01:53;96997.09;;;4.97;77.81
17025;BME280;8629;42.496;25.620;2024-02-28T06:04:20;96967.53;;;4.78;77.57
17025;BME280;8629;42.496;25.620;2024-02-28T06:06:48;96933.47;;;4.43;78.40
17025;BME280;8629;42.496;25.620;2024-02-28T06:09:16;96908.00;;;4.49;78.08
17025;BME280;8629;42.496;25.620;2024-02-28T06:11:42;97004.00;;;5.15;77.99
17025;BME280;8629;42.496;25.620;2024-02-28T06:14:09;97014.19;;;5.45;78.19
17025;BME280;8629;42.496;25.620;2024-02-28T06:16:36;96964.06;;;5.28;76.62
17025;BME280;8629;42.496;25.620;2024-02-28T06:19:03;96975.00;;;5.37;76.89
17025;BME280;8629;42.496;25.620;2024-02-28T06:21:30;97012.63;;;5.66;78.00
17025;BME280;8629;42.496;25.620;2024-02-28T06:23:58;96988.88;;;5.66;77.96
17025;BME280;8629;42.496;25.620;2024-02-28T06:26:25;97014.88;;;5.96;77.97
17025;BME280;8629;42.496;25.620;2024-02-28T06:28:52;97022.72;;;6.08;78.18
17025;BME280;8629;42.496;25.620;2024-02-28T06:31:19;97008.53;;;6.41;77.53
17025;BME280;8629;42.496;25.620;2024-02-28T06:33:46;97005.63;;;6.43;77.11
17025;BME280;8629;42.496;25.620;2024-02-28T06:36:13;96960.97;;;6.19;77.82
17025;BME280;8629;42.496;25.620;2024-02-28T06:38:39;97006.75;;;6.74;78.97
17025;BME280;8629;42.496;25.620;2024-02-28T06:41:08;96933.59;;;6.30;78.49
17025;BME280;8629;42.496;25.620;2024-02-28T06:43:37;97013.38;;;6.49;79.32
17025;BME280;8629;42.496;25.620;2024-02-28T06:46:04;97024.22;;;6.75;78.82
17025;BME280;8629;42.496;25.620;2024-02-28T06:48:31;97021.22;;;6.66;78.74
17025;BME280;8629;42.496;25.620;2024-02-28T06:50:58;97017.34;;;6.74;78.24
17025;BME280;8629;42.496;25.620;2024-02-28T06:53:25;97038.72;;;6.99;77.64
17025;BME280;8629;42.496;25.620;2024-02-28T06:55:52;97028.44;;;6.76;76.03
17025;BME280;8629;42.496;25.620;2024-02-28T06:58:20;96987.56;;;6.61;76.58
17025;BME280;8629;42.496;25.620;2024-02-28T07:00:51;97037.72;;;7.05;76.20
17025;BME280;8629;42.496;25.620;2024-02-28T07:03:18;97042.44;;;7.03;76.18
17025;BME280;8629;42.496;25.620;2024-02-28T07:05:45;97004.00;;;6.96;76.01
17025;BME280;8629;42.496;25.620;2024-02-28T07:08:12;97036.53;;;7.23;75.56
17025;BME280;8629;42.496;25.620;2024-02-28T07:10:39;97043.91;;;7.53;75.12
17025;BME280;8629;42.496;25.620;2024-02-28T07:13:08;97037.50;;;7.92;74.48
17025;BME280;8629;42.496;25.620;2024-02-28T07:15:37;97004.13;;;7.96;74.44
17025;BME280;8629;42.496;25.620;2024-02-28T07:18:05;96980.66;;;8.25;74.02
17025;BME280;8629;42.496;25.620;2024-02-28T07:20:32;97046.00;;;8.67;73.83
17025;BME280;8629;42.496;25.620;2024-02-28T07:22:59;96995.28;;;8.38;73.59
17025;BME280;8629;42.496;25.620;2024-02-28T07:25:25;97042.09;;;8.85;73.55
17025;BME280;8629;42.496;25.620;2024-02-28T07:27:53;97018.69;;;8.66;73.21
17025;BME280;8629;42.496;25.620;2024-02-28T07:30:19;97046.63;;;9.20;72.05
17025;BME280;8629;42.496;25.620;2024-02-28T07:32:50;97054.59;;;9.50;70.74
17025;BME280;8629;42.496;25.620;2024-02-28T07:35:17;97057.78;;;9.52;70.39
17025;BME280;8629;42.496;25.620;2024-02-28T07:37:44;97051.88;;;9.81;70.10
17025;BME280;8629;42.496;25.620;2024-02-28T07:40:12;97010.22;;;9.36;70.29
17025;BME280;8629;42.496;25.620;2024-02-28T07:42:39;97041.28;;;9.76;69.63
17025;BME280;8629;42.496;25.620;2024-02-28T07:45:06;97049.66;;;10.14;68.70
17025;BME280;8629;42.496;25.620;2024-02-28T07:47:34;97023.59;;;10.16;67.65
17025;BME280;8629;42.496;25.620;2024-02-28T07:50:02;97035.28;;;10.20;67.75
17025;BME280;8629;42.496;25.620;2024-02-28T07:52:29;97056.44;;;10.56;67.07
17025;BME280;8629;42.496;25.620;2024-02-28T07:54:56;96986.81;;;10.33;66.06
17025;BME280;8629;42.496;25.620;2024-02-28T07:57:22;97026.47;;;10.84;66.02
17025;BME280;8629;42.496;25.620;2024-02-28T07:59:49;97055.28;;;10.77;65.94
17025;BME280;8629;42.496;25.620;2024-02-28T08:02:16;97055.63;;;10.55;66.96
17025;BME280;8629;42.496;25.620;2024-02-28T08:04:45;97060.84;;;10.81;66.56
17025;BME280;8629;42.496;25.620;2024-02-28T08:07:13;97056.84;;;11.17;65.33
17025;BME280;8629;42.496;25.620;2024-02-28T08:09:40;97058.59;;;11.66;63.73
17025;BME280;8629;42.496;25.620;2024-02-28T08:12:07;97059.13;;;12.21;62.60
17025;BME280;8629;42.496;25.620;2024-02-28T08:14:34;97035.66;;;12.18;61.56
17025;BME280;8629;42.496;25.620;2024-02-28T08:17:00;97028.69;;;11.98;62.10
17025;BME280;8629;42.496;25.620;2024-02-28T08:19:27;97049.88;;;12.57;59.92
17025;BME280;8629;42.496;25.620;2024-02-28T08:21:54;97052.13;;;12.87;58.88
17025;BME280;8629;42.496;25.620;2024-02-28T08:24:22;97057.47;;;12.68;59.78
17025;BME280;8629;42.496;25.620;2024-02-28T08:26:49;97054.22;;;12.90;57.71
17025;BME280;8629;42.496;25.620;2024-02-28T08:29:16;97051.78;;;13.13;57.62
17025;BME280;8629;42.496;25.620;2024-02-28T08:31:45;97049.59;;;12.96;56.31
17025;BME280;8629;42.496;25.620;2024-02-28T08:34:12;97046.00;;;13.25;56.95
17025;BME280;8629;42.496;25.620;2024-02-28T08:36:39;97009.91;;;13.41;55.47
17025;BME280;8629;42.496;25.620;2024-02-28T08:39:06;97027.91;;;13.82;54.54
17025;BME280;8629;42.496;25.620;2024-02-28T08:41:36;97053.69;;;13.45;55.14
17025;BME280;8629;42.496;25.620;2024-02-28T08:44:03;97042.75;;;13.60;55.09
17025;BME280;8629;42.496;25.620;2024-02-28T08:46:30;97060.44;;;14.03;54.86
17025;BME280;8629;42.496;25.620;2024-02-28T08:48:56;97046.34;;;13.83;54.36
17025;BME280;8629;42.496;25.620;2024-02-28T08:51:23;97057.41;;;13.63;54.78
17025;BME280;8629;42.496;25.620;2024-02-28T08:53:50;97050.69;;;13.14;56.63
17025;BME280;8629;42.496;25.620;2024-02-28T08:56:19;97029.81;;;12.97;55.87
17025;BME280;8629;42.496;25.620;2024-02-28T08:58:47;97014.03;;;12.82;56.76
17025;BME280;8629;42.496;25.620;2024-02-28T09:01:14;97057.91;;;12.94;57.03
17025;BME280;8629;42.496;25.620;2024-02-28T09:03:41;97059.66;;;13.23;56.56
17025;BME280;8629;42.496;25.620;2024-02-28T09:06:08;97062.38;;;13.37;55.94
17025;BME280;8629;42.496;25.620;2024-02-28T09:08:35;97055.53;;;13.77;55.25
17025;BME280;8629;42.496;25.620;2024-02-28T09:11:02;97059.66;;;13.56;55.42
17025;BME280;8629;42.496;25.620;2024-02-28T09:13:30;97062.47;;;13.78;54.22
17025;BME280;8629;42.496;25.620;2024-02-28T09:15:58;97061.41;;;13.93;53.91
17025;BME280;8629;42.496;25.620;2024-02-28T09:18:25;97061.81;;;14.28;53.28
17025;BME280;8629;42.496;25.620;2024-02-28T09:20:52;97027.75;;;14.06;52.38
17025;BME280;8629;42.496;25.620;2024-02-28T09:23:19;97069.25;;;14.17;52.47
17025;BME280;8629;42.496;25.620;2024-02-28T09:25:46;97066.41;;;15.05;50.81
17025;BME280;8629;42.496;25.620;2024-02-28T09:28:13;97062.66;;;15.28;49.56
17025;BME280;8629;42.496;25.620;2024-02-28T09:30:41;97052.88;;;15.55;48.82
17025;BME280;8629;42.496;25.620;2024-02-28T09:33:09;97054.97;;;16.20;47.57
17025;BME280;8629;42.496;25.620;2024-02-28T09:35:37;97054.72;;;16.96;45.71
17025;BME280;8629;42.496;25.620;2024-02-28T09:38:04;97034.59;;;16.19;46.23
17025;BME280;8629;42.496;25.620;2024-02-28T09:40:31;97045.75;;;16.52;45.99
17025;BME280;8629;42.496;25.620;2024-02-28T09:43:01;97062.00;;;16.38;45.68
17025;BME280;8629;42.496;25.620;2024-02-28T09:45:29;97048.22;;;16.31;46.53
17025;BME280;8629;42.496;25.620;2024-02-28T09:47:58;97055.00;;;16.77;45.10
17025;BME280;8629;42.496;25.620;2024-02-28T09:50:27;97053.28;;;16.81;44.31
17025;BME280;8629;42.496;25.620;2024-02-28T09:52:54;97051.81;;;15.87;45.42
17025;BME280;8629;42.496;25.620;2024-02-28T09:55:21;97053.03;;;16.03;45.81
17025;BME280;8629;42.496;25.620;2024-02-28T09:57:48;97045.75;;;16.04;45.88
17025;BME280;8629;42.496;25.620;2024-02-28T10:00:19;97011.59;;;16.53;44.94
17025;BME280;8629;42.496;25.620;2024-02-28T10:02:47;97042.53;;;16.81;43.67
17025;BME280;8629;42.496;25.620;2024-02-28T10:05:17;97023.66;;;16.73;42.62
17025;BME280;8629;42.496;25.620;2024-02-28T10:07:46;97036.50;;;16.93;43.26
17025;BME280;8629;42.496;25.620;2024-02-28T10:10:13;97035.94;;;17.87;42.01
17025;BME280;8629;42.496;25.620;2024-02-28T10:12:42;97035.97;;;17.78;40.78
17025;BME280;8629;42.496;25.620;2024-02-28T10:15:10;97031.22;;;17.66;41.45
17025;BME280;8629;42.496;25.620;2024-02-28T10:17:37;97006.72;;;17.50;40.97
17025;BME280;8629;42.496;25.620;2024-02-28T10:20:05;97004.84;;;18.27;40.46
17025;BME280;8629;42.496;25.620;2024-02-28T10:22:35;97025.53;;;18.15;39.13
17025;BME280;8629;42.496;25.620;2024-02-28T10:25:03;96977.16;;;17.89;40.77
17025;BME280;8629;42.496;25.620;2024-02-28T10:27:32;97005.03;;;18.22;39.66
17025;BME280;8629;42.496;25.620;2024-02-28T10:29:59;96999.59;;;18.01;37.34
17025;BME280;8629;42.496;25.620;2024-02-28T10:32:27;97015.63;;;18.27;36.83
17025;BME280;8629;42.496;25.620;2024-02-28T10:34:54;97011.94;;;18.70;37.13
17025;BME280;8629;42.496;25.620;2024-02-28T10:37:21;97000.13;;;18.24;36.95
17025;BME280;8629;42.496;25.620;2024-02-28T10:39:51;96988.25;;;17.87;36.93
17025;BME280;8629;42.496;25.620;2024-02-28T10:42:21;97006.31;;;17.87;37.64
17025;BME280;8629;42.496;25.620;2024-02-28T10:44:50;97004.47;;;17.61;37.34
17025;BME280;8629;42.496;25.620;2024-02-28T10:47:18;97006.78;;;17.89;36.82
17025;BME280;8629;42.496;25.620;2024-02-28T10:49:45;97008.25;;;18.16;36.70
17025;BME280;8629;42.496;25.620;2024-02-28T10:52:14;96998.25;;;18.46;35.52
17025;BME280;8629;42.496;25.620;2024-02-28T10:54:42;96995.19;;;17.97;37.04
17025;BME280;8629;42.496;25.620;2024-02-28T10:57:12;96989.84;;;18.18;36.58
17025;BME280;8629;42.496;25.620;2024-02-28T10:59:40;96989.38;;;18.16;35.83
17025;BME280;8629;42.496;25.620;2024-02-28T11:02:09;96978.09;;;19.15;34.47
17025;BME280;8629;42.496;25.620;2024-02-28T11:04:36;96968.09;;;19.27;33.89
17025;BME280;8629;42.496;25.620;2024-02-28T11:07:03;96946.88;;;18.21;36.90
17025;BME280;8629;42.496;25.620;2024-02-28T11:09:30;96969.97;;;17.46;39.26
17025;BME280;8629;42.496;25.620;2024-02-28T11:11:57;96964.44;;;17.42;40.32
17025;BME280;8629;42.496;25.620;2024-02-28T11:14:25;96973.91;;;18.33;36.14
17025;BME280;8629;42.496;25.620;2024-02-28T11:17:03;96971.66;;;17.85;37.06
17025;BME280;8629;42.496;25.620;2024-02-28T11:19:31;96933.47;;;17.74;36.30
17025;BME280;8629;42.496;25.620;2024-02-28T11:21:59;96961.28;;;17.49;40.34
17025;BME280;8629;42.496;25.620;2024-02-28T11:24:29;96956.78;;;17.70;37.99
17025;BME280;8629;42.496;25.620;2024-02-28T11:26:56;96957.19;;;17.90;36.70
17025;BME280;8629;42.496;25.620;2024-02-28T11:29:24;96948.00;;;17.91;36.50
17025;BME280;8629;42.496;25.620;2024-02-28T11:31:52;96949.78;;;18.16;36.64
17025;BME280;8629;42.496;25.620;2024-02-28T11:34:21;96945.75;;;18.52;37.00
17025;BME280;8629;42.496;25.620;2024-02-28T11:36:48;96942.97;;;18.61;37.36
17025;BME280;8629;42.496;25.620;2024-02-28T11:39:15;96939.81;;;18.58;36.47
17025;BME280;8629;42.496;25.620;2024-02-28T11:41:42;96944.72;;;17.85;37.08
17025;BME280;8629;42.496;25.620;2024-02-28T11:44:12;96944.28;;;18.96;35.50
17025;BME280;8629;42.496;25.620;2024-02-28T11:46:43;96938.91;;;18.75;36.10
17025;BME280;8629;42.496;25.620;2024-02-28T11:49:10;96937.19;;;18.92;35.96
17025;BME280;8629;42.496;25.620;2024-02-28T11:51:39;96934.66;;;19.08;35.53
17025;BME280;8629;42.496;25.620;2024-02-28T11:54:07;96929.28;;;19.20;36.46
17025;BME280;8629;42.496;25.620;2024-02-28T11:56:34;96926.84;;;19.27;34.53
17025;BME280;8629;42.496;25.620;2024-02-28T11:59:01;96893.38;;;18.53;35.51
17025;BME280;8629;42.496;25.620;2024-02-28T12:01:36;96933.19;;;18.77;36.09
17025;BME280;8629;42.496;25.620;2024-02-28T12:04:03;96914.31;;;18.77;36.10
17025;BME280;8629;42.496;25.620;2024-02-28T12:06:31;96922.44;;;19.22;36.21
17025;BME280;8629;42.496;25.620;2024-02-28T12:09:00;96925.09;;;18.56;36.64
17025;BME280;8629;42.496;25.620;2024-02-28T12:11:26;96927.28;;;18.84;36.43
17025;BME280;8629;42.496;25.620;2024-02-28T12:13:55;96914.41;;;19.01;35.66
17025;BME280;8629;42.496;25.620;2024-02-28T12:16:22;96914.88;;;19.16;35.32
17025;BME280;8629;42.496;25.620;2024-02-28T12:18:50;96912.25;;;18.53;36.36
17025;BME280;8629;42.496;25.620;2024-02-28T12:21:17;96912.16;;;18.70;35.71
17025;BME280;8629;42.496;25.620;2024-02-28T12:23:46;96890.81;;;18.77;36.25
17025;BME280;8629;42.496;25.620;2024-02-28T12:26:16;96899.59;;;19.20;35.69
17025;BME280;8629;42.496;25.620;2024-02-28T12:28:43;96910.09;;;19.21;35.94
17025;BME280;8629;42.496;25.620;2024-02-28T12:31:09;96884.47;;;18.40;37.52
17025;BME280;8629;42.496;25.620;2024-02-28T12:33:37;96895.09;;;17.48;39.45
17025;BME280;8629;42.496;25.620;2024-02-28T12:36:05;96896.75;;;17.23;40.04
17025;BME280;8629;42.496;25.620;2024-02-28T12:38:32;96899.38;;;16.76;41.12
17025;BME280;8629;42.496;25.620;2024-02-28T12:40:59;96868.72;;;16.59;41.46
17025;BME280;8629;42.496;25.620;2024-02-28T12:43:29;96890.22;;;16.85;41.90
17025;BME280;8629;42.496;25.620;2024-02-28T12:45:56;96891.34;;;16.84;42.77
17025;BME280;8629;42.496;25.620;2024-02-28T12:48:23;96895.03;;;17.18;42.07
17025;BME280;8629;42.496;25.620;2024-02-28T12:50:50;96869.38;;;17.29;41.39
17025;BME280;8629;42.496;25.620;2024-02-28T12:53:16;96898.25;;;17.58;41.02
17025;BME280;8629;42.496;25.620;2024-02-28T12:55:43;96888.97;;;18.06;40.15
17025;BME280;8629;42.496;25.620;2024-02-28T12:58:10;96888.91;;;18.15;39.53
17025;BME280;8629;42.496;25.620;2024-02-28T13:00:39;96862.03;;;18.27;38.47
17025;BME280;8629;42.496;25.620;2024-02-28T13:03:06;96866.88;;;17.24;39.81
17025;BME280;8629;42.496;25.620;2024-02-28T13:05:33;96881.28;;;17.20;41.81
17025;BME280;8629;42.496;25.620;2024-02-28T13:08:00;96884.72;;;17.29;41.86
17025;BME280;8629;42.496;25.620;2024-02-28T13:10:26;96891.78;;;17.51;41.02